createdAt,value
2018-07-02T00:00:24.504Z,24.00
2018-07-02T00:02:52.243Z,24.00
2018-07-02T00:05:19.942Z,23.90
2018-07-02T00:07:47.699Z,24.00
2018-07-02T00:10:15.455Z,23.90
2018-07-02T00:12:43.118Z,23.70
2018-07-02T00:15:10.850Z,23.70
2018-07-02T00:22:34.935Z,23.70
2018-07-02T00:25:02.707Z,23.70
2018-07-02T00:27:30.399Z,23.60
2018-07-02T00:29:58.144Z,23.70
2018-07-02T00:34:55.249Z,23.80
2018-07-02T00:37:23.107Z,23.90
2018-07-02T00:39:52.189Z,23.70
2018-07-02T00:42:20.017Z,23.70
2018-07-02T00:44:47.727Z,23.60
2018-07-02T00:47:15.413Z,23.60
2018-07-02T00:49:43.090Z,23.60
2018-07-02T00:52:10.767Z,23.40
2018-07-02T00:54:38.515Z,23.30
2018-07-02T00:57:06.232Z,23.20
2018-07-02T00:59:33.930Z,23.20
2018-07-02T01:02:01.678Z,23.20
2018-07-02T01:04:29.368Z,23.20
2018-07-02T01:06:57.055Z,23.10
2018-07-02T01:09:24.751Z,23.00
2018-07-02T01:11:52.733Z,23.00
2018-07-02T01:14:20.418Z,23.00
2018-07-02T01:16:48.104Z,22.90
2018-07-02T01:19:15.800Z,22.90
2018-07-02T01:21:43.542Z,22.90
2018-07-02T01:24:11.514Z,22.80
2018-07-02T01:26:39.197Z,22.70
2018-07-02T01:29:06.859Z,22.60
2018-07-02T01:31:34.545Z,22.60
2018-07-02T01:34:02.346Z,22.50
2018-07-02T01:36:30.068Z,22.50
2018-07-02T01:38:57.793Z,22.40
2018-07-02T01:41:25.479Z,22.30
2018-07-02T01:43:53.216Z,22.30
2018-07-02T01:46:20.903Z,22.10
2018-07-02T01:48:48.656Z,22.10
2018-07-02T01:51:16.450Z,22.10
2018-07-02T01:53:44.121Z,22.00
2018-07-02T01:56:11.832Z,22.00
2018-07-02T01:58:39.549Z,22.00
2018-07-02T02:01:07.238Z,21.90
2018-07-02T02:03:34.926Z,21.90
2018-07-02T02:06:02.649Z,21.80
2018-07-02T02:08:30.343Z,21.70
2018-07-02T02:10:58.066Z,21.70
2018-07-02T02:13:25.747Z,21.60
2018-07-02T02:15:53.459Z,21.60
2018-07-02T02:18:21.426Z,21.50
2018-07-02T02:20:49.097Z,21.50
2018-07-02T02:23:16.772Z,21.60
2018-07-02T02:25:44.452Z,21.60
2018-07-02T02:28:13.059Z,21.50
2018-07-02T02:30:40.734Z,21.30
2018-07-02T02:33:08.420Z,21.30
2018-07-02T02:38:04.016Z,21.20
2018-07-02T02:40:31.698Z,21.10
2018-07-02T02:42:59.394Z,21.20
2018-07-02T02:45:27.106Z,21.30
2018-07-02T02:50:22.486Z,21.20
2018-07-02T02:52:50.165Z,21.20
2018-07-02T02:55:18.613Z,21.20
2018-07-02T02:57:46.326Z,21.20
2018-07-02T03:00:14.993Z,21.00
2018-07-02T03:02:42.679Z,20.90
2018-07-02T03:05:10.359Z,20.70
2018-07-02T03:07:38.039Z,20.60
2018-07-02T03:10:05.722Z,20.60
2018-07-02T03:12:33.377Z,20.50
2018-07-02T03:15:01.063Z,20.50
2018-07-02T03:17:28.748Z,20.50
2018-07-02T03:19:56.452Z,20.50
2018-07-02T03:22:24.166Z,20.60
2018-07-02T03:24:51.881Z,20.50
2018-07-02T03:27:19.599Z,20.50
2018-07-02T03:29:47.279Z,20.30
2018-07-02T03:34:42.702Z,20.10
2018-07-02T03:37:10.373Z,19.80
2018-07-02T03:39:38.027Z,19.80
2018-07-02T03:42:05.825Z,19.80
2018-07-02T03:44:33.538Z,20.00
2018-07-02T03:47:01.197Z,20.10
2018-07-02T03:49:28.895Z,20.10
2018-07-02T03:51:56.616Z,20.20
2018-07-02T03:54:24.299Z,20.10
2018-07-02T03:56:52.066Z,20.00
2018-07-02T03:59:19.733Z,20.10
2018-07-02T04:01:47.404Z,20.20
2018-07-02T04:04:15.095Z,20.20
2018-07-02T04:06:42.786Z,20.10
2018-07-02T04:09:12.301Z,20.00
2018-07-02T04:11:40.101Z,20.10
2018-07-02T04:14:07.999Z,20.30
2018-07-02T04:16:35.942Z,20.30
2018-07-02T04:19:09.451Z,20.30
2018-07-02T04:21:37.885Z,20.20
2018-07-02T04:24:06.030Z,20.10
2018-07-02T04:26:33.737Z,20.20
2018-07-02T04:29:01.585Z,20.30
2018-07-02T04:31:29.276Z,20.50
2018-07-02T04:33:56.981Z,20.60
2018-07-02T04:36:24.746Z,20.60
2018-07-02T04:38:52.432Z,20.50
2018-07-02T04:41:20.300Z,20.50
2018-07-02T04:43:48.270Z,20.60
2018-07-02T04:46:16.248Z,20.60
2018-07-02T04:48:43.975Z,20.60
2018-07-02T04:51:11.701Z,20.80
2018-07-02T04:53:39.541Z,20.70
2018-07-02T04:56:07.248Z,20.80
2018-07-02T05:01:02.758Z,21.00
2018-07-02T05:03:30.454Z,20.90
2018-07-02T05:05:58.206Z,20.80
2018-07-02T05:08:25.911Z,20.80
2018-07-02T05:13:21.307Z,20.80
2018-07-02T05:18:16.757Z,20.90
2018-07-02T05:20:44.483Z,20.90
2018-07-02T05:23:12.180Z,21.00
2018-07-02T05:25:39.907Z,20.90
2018-07-02T05:28:07.607Z,20.90
2018-07-02T05:30:35.314Z,20.90
2018-07-02T05:33:03.035Z,20.90
2018-07-02T05:35:30.767Z,21.10
2018-07-02T05:37:58.450Z,21.20
2018-07-02T05:40:26.121Z,21.20
2018-07-02T05:42:53.797Z,21.50
2018-07-02T05:47:49.320Z,21.60
2018-07-02T05:50:16.993Z,21.50
2018-07-02T05:52:44.734Z,21.50
2018-07-02T05:55:12.499Z,21.80
2018-07-02T05:57:40.247Z,21.70
2018-07-02T06:00:08.421Z,21.90
2018-07-02T06:02:36.109Z,22.30
2018-07-02T06:07:31.647Z,22.50
2018-07-02T06:09:59.719Z,22.50
2018-07-02T06:14:55.227Z,22.80
2018-07-02T06:17:22.942Z,22.90
2018-07-02T06:19:50.694Z,23.20
2018-07-02T06:24:46.168Z,23.30
2018-07-02T06:27:13.838Z,23.70
2018-07-02T06:29:41.570Z,23.80
2018-07-02T06:32:09.295Z,23.80
2018-07-02T06:34:36.993Z,23.80
2018-07-02T06:37:04.711Z,23.80
2018-07-02T06:39:32.422Z,23.90
2018-07-02T06:42:00.402Z,24.00
2018-07-02T06:44:28.531Z,24.00
2018-07-02T06:46:56.188Z,24.00
2018-07-02T06:49:23.875Z,24.10
2018-07-02T06:51:51.590Z,24.30
2018-07-02T06:54:19.306Z,24.20
2018-07-02T06:56:46.984Z,24.50
2018-07-02T06:59:14.943Z,24.70
2018-07-02T07:01:42.642Z,24.70
2018-07-02T07:04:10.441Z,24.90
2018-07-02T07:06:38.114Z,25.00
2018-07-02T07:09:07.605Z,25.20
2018-07-02T07:11:35.375Z,25.20
2018-07-02T07:14:03.099Z,25.10
2018-07-02T07:16:30.821Z,25.10
2018-07-02T07:18:58.855Z,25.20
2018-07-02T07:22:56.159Z,25.10
2018-07-02T07:25:23.877Z,25.10
2018-07-02T07:27:51.529Z,25.30
2018-07-02T07:30:19.229Z,25.20
2018-07-02T07:32:46.915Z,25.50
2018-07-02T07:35:14.615Z,25.50
2018-07-02T07:37:42.289Z,25.20
2018-07-02T07:40:09.967Z,25.30
2018-07-02T07:45:05.365Z,25.80
2018-07-02T07:47:33.083Z,26.20
2018-07-02T07:50:00.807Z,26.50
2018-07-02T07:52:28.517Z,26.90
2018-07-02T07:54:56.217Z,26.80
2018-07-02T07:57:23.967Z,26.90
2018-07-02T07:59:51.722Z,27.00
2018-07-02T08:02:19.451Z,27.20
2018-07-02T08:04:47.148Z,27.60
2018-07-02T08:07:14.878Z,28.30
2018-07-02T08:09:42.581Z,28.80
2018-07-02T08:14:37.969Z,30.10
2018-07-02T08:17:05.688Z,30.60
2018-07-02T08:19:33.413Z,31.00
2018-07-02T08:22:01.125Z,31.20
2018-07-02T08:24:28.801Z,31.50
2018-07-02T08:26:56.479Z,31.70
2018-07-02T08:29:24.379Z,32.10
2018-07-02T08:31:52.110Z,32.20
2018-07-02T08:34:19.785Z,31.90
2018-07-02T08:36:47.474Z,32.20
2018-07-02T08:39:15.193Z,32.70
2018-07-02T08:44:10.651Z,33.10
2018-07-02T08:46:38.371Z,33.00
2018-07-02T08:49:06.078Z,32.90
2018-07-02T08:51:33.797Z,32.90
2018-07-02T08:54:01.487Z,32.00
2018-07-02T08:56:29.170Z,32.60
2018-07-02T08:58:57.042Z,32.80
2018-07-02T09:01:24.732Z,33.00
2018-07-02T09:03:52.755Z,33.40
2018-07-02T09:06:20.705Z,33.60
2018-07-02T09:08:48.709Z,33.60
2018-07-02T09:11:16.388Z,33.80
2018-07-02T09:13:44.096Z,34.00
2018-07-02T09:16:11.801Z,34.00
2018-07-02T09:18:39.507Z,33.40
2018-07-02T09:21:07.234Z,32.90
2018-07-02T09:23:34.936Z,33.40
2018-07-02T09:26:03.066Z,33.80
2018-07-02T09:28:30.985Z,33.40
2018-07-02T09:33:26.370Z,34.30
2018-07-02T09:35:54.032Z,34.20
2018-07-02T09:38:21.980Z,33.60
2018-07-02T09:40:49.679Z,34.40
2018-07-02T09:43:17.562Z,34.60
2018-07-02T09:45:45.319Z,35.00
2018-07-02T09:48:13.203Z,35.40
2018-07-02T09:50:40.902Z,35.60
2018-07-02T09:58:05.679Z,36.30
2018-07-02T10:00:35.584Z,36.80
2018-07-02T10:03:04.577Z,36.00
2018-07-02T10:05:32.889Z,35.30
2018-07-02T10:08:00.611Z,35.50
2018-07-02T10:10:28.304Z,36.00
2018-07-02T10:12:55.961Z,36.30
2018-07-02T10:15:23.641Z,37.20
2018-07-02T10:17:51.343Z,36.90
2018-07-02T10:20:19.136Z,36.30
2018-07-02T10:22:47.049Z,36.20
2018-07-02T10:25:14.758Z,36.60
2018-07-02T10:27:42.467Z,37.10
2018-07-02T10:30:10.183Z,35.80
2018-07-02T10:32:37.879Z,35.30
2018-07-02T10:35:05.557Z,35.30
2018-07-02T10:37:33.533Z,36.00
2018-07-02T10:40:01.369Z,36.70
2018-07-02T10:42:29.051Z,37.40
2018-07-02T10:44:56.707Z,37.60
2018-07-02T10:47:24.390Z,37.10
2018-07-02T10:49:52.743Z,36.50
2018-07-02T10:52:21.289Z,36.50
2018-07-02T10:54:49.208Z,35.90
2018-07-02T10:57:16.927Z,35.80
2018-07-02T10:59:44.647Z,36.50
2018-07-02T11:02:12.415Z,36.60
2018-07-02T11:04:40.110Z,37.50
2018-07-02T11:07:07.795Z,37.60
2018-07-02T11:09:37.402Z,36.60
2018-07-02T11:12:06.666Z,37.00
2018-07-02T11:14:35.374Z,37.60
2018-07-02T11:19:31.452Z,38.30
2018-07-02T11:21:59.178Z,38.90
2018-07-02T11:24:26.859Z,38.70
2018-07-02T11:26:54.589Z,38.80
2018-07-02T11:29:22.894Z,39.30
2018-07-02T11:31:51.358Z,38.40
2018-07-02T11:34:19.580Z,38.10
2018-07-02T11:36:47.301Z,38.90
2018-07-02T11:39:18.124Z,39.10
2018-07-02T11:41:46.891Z,38.10
2018-07-02T11:44:15.400Z,38.90
2018-07-02T11:46:44.053Z,38.30
2018-07-02T11:49:11.782Z,39.00
2018-07-02T11:51:39.533Z,39.50
2018-07-02T11:54:07.847Z,39.70
2018-07-02T11:56:36.882Z,40.00
2018-07-02T11:59:04.729Z,40.40
2018-07-02T12:04:01.413Z,39.90
2018-07-02T12:06:29.152Z,39.80
2018-07-02T12:08:57.168Z,40.10
2018-07-02T12:11:25.806Z,40.00
2018-07-02T12:13:54.658Z,39.70
2018-07-02T12:16:22.783Z,40.20
2018-07-02T12:18:50.503Z,40.40
2018-07-02T12:21:19.591Z,40.50
2018-07-02T12:23:48.019Z,40.20
2018-07-02T12:26:16.637Z,40.30
2018-07-02T12:28:44.413Z,39.90
2018-07-02T12:33:39.940Z,40.40
2018-07-02T12:36:07.631Z,39.60
2018-07-02T12:38:35.320Z,39.70
2018-07-02T12:41:03.012Z,40.50
2018-07-02T12:43:30.737Z,40.20
2018-07-02T12:45:58.456Z,39.80
2018-07-02T12:48:26.174Z,40.40
2018-07-02T12:50:53.920Z,40.40
2018-07-02T12:53:21.611Z,39.30
2018-07-02T12:55:49.293Z,39.20
2018-07-02T12:58:16.984Z,39.90
2018-07-02T13:00:44.743Z,39.80
2018-07-02T13:03:12.459Z,40.00
2018-07-02T13:05:40.170Z,40.40
2018-07-02T13:08:07.888Z,40.40
2018-07-02T13:10:35.651Z,40.80
2018-07-02T13:13:03.402Z,41.00
2018-07-02T13:15:31.190Z,41.20
2018-07-02T13:17:58.908Z,41.70
2018-07-02T13:20:26.674Z,41.20
2018-07-02T13:22:54.404Z,41.30
2018-07-02T13:25:22.171Z,40.60
2018-07-02T13:27:49.926Z,40.00
2018-07-02T13:30:17.625Z,40.70
2018-07-02T13:35:13.106Z,41.30
2018-07-02T13:37:40.851Z,41.60
2018-07-02T13:40:08.523Z,41.60
2018-07-02T13:42:36.248Z,41.70
2018-07-02T13:47:31.755Z,41.90
2018-07-02T13:49:59.494Z,42.30
2018-07-02T13:52:27.209Z,42.70
2018-07-02T13:54:54.968Z,42.60
2018-07-02T13:57:22.674Z,42.50
2018-07-02T13:59:50.431Z,42.50
2018-07-02T14:02:18.182Z,43.10
2018-07-02T14:04:46.039Z,43.30
2018-07-02T14:07:13.739Z,43.50
2018-07-02T14:09:41.771Z,43.80
2018-07-02T14:12:09.455Z,43.90
2018-07-02T14:14:37.243Z,43.30
2018-07-02T14:17:04.886Z,43.40
2018-07-02T14:19:32.655Z,43.90
2018-07-02T14:22:00.347Z,43.20
2018-07-02T14:24:28.014Z,42.90
2018-07-02T14:26:55.724Z,42.60
2018-07-02T14:29:23.445Z,42.50
2018-07-02T14:31:51.142Z,43.10
2018-07-02T14:34:18.864Z,43.30
2018-07-02T14:36:46.568Z,43.50
2018-07-02T14:39:14.317Z,43.70
2018-07-02T14:41:42.070Z,43.70
2018-07-02T14:44:09.785Z,43.60
2018-07-02T14:46:37.695Z,43.70
2018-07-02T14:49:05.644Z,43.70
2018-07-02T14:51:33.535Z,43.70
2018-07-02T14:54:01.234Z,43.90
2018-07-02T14:56:29.287Z,43.50
2018-07-02T14:58:56.999Z,43.30
2018-07-02T15:01:24.687Z,42.50
2018-07-02T15:03:52.420Z,42.60
2018-07-02T15:06:20.119Z,42.40
2018-07-02T15:08:47.822Z,42.20
2018-07-02T15:11:15.561Z,41.80
2018-07-02T15:13:43.249Z,41.50
2018-07-02T15:16:10.976Z,41.40
2018-07-02T15:21:06.446Z,42.20
2018-07-02T15:23:34.137Z,42.40
2018-07-02T15:26:01.858Z,42.40
2018-07-02T15:28:29.568Z,42.80
2018-07-02T15:30:57.312Z,42.30
2018-07-02T15:33:25.033Z,42.20
2018-07-02T15:35:52.870Z,42.80
2018-07-02T15:38:20.503Z,43.50
2018-07-02T15:40:48.319Z,43.30
2018-07-02T15:43:16.007Z,43.10
2018-07-02T15:45:43.749Z,41.90
2018-07-02T15:48:11.547Z,42.60
2018-07-02T15:50:39.224Z,42.80
2018-07-02T15:53:06.970Z,43.00
2018-07-02T15:55:34.669Z,42.40
2018-07-02T15:58:02.725Z,42.10
2018-07-02T16:00:30.325Z,41.70
2018-07-02T16:02:58.031Z,41.90
2018-07-02T16:05:25.755Z,42.40
2018-07-02T16:07:53.509Z,42.60
2018-07-02T16:10:21.225Z,42.30
2018-07-02T16:12:48.933Z,42.70
2018-07-02T16:15:16.618Z,42.40
2018-07-02T16:17:44.329Z,42.70
2018-07-02T16:20:12.044Z,42.50
2018-07-02T16:22:39.747Z,42.30
2018-07-02T16:25:07.489Z,42.50
2018-07-02T16:27:35.170Z,42.50
2018-07-02T16:30:04.005Z,42.00
2018-07-02T16:32:31.727Z,42.10
2018-07-02T16:34:59.390Z,41.80
2018-07-02T16:37:27.077Z,42.30
2018-07-02T16:39:54.771Z,41.90
2018-07-02T16:42:23.629Z,42.50
2018-07-02T16:44:51.430Z,42.50
2018-07-02T16:47:19.234Z,42.40
2018-07-02T16:49:47.109Z,42.30
2018-07-02T16:52:14.947Z,42.00
2018-07-02T16:54:42.755Z,40.90
2018-07-02T16:57:10.508Z,41.20
2018-07-02T16:59:38.231Z,42.10
2018-07-02T17:02:06.115Z,42.40
2018-07-02T17:04:33.820Z,42.90
2018-07-02T17:07:02.300Z,42.70
2018-07-02T17:09:29.982Z,42.50
2018-07-02T17:11:57.665Z,42.60
2018-07-02T17:14:25.369Z,42.40
2018-07-02T17:16:53.084Z,42.70
2018-07-02T17:19:21.978Z,42.60
2018-07-02T17:21:50.406Z,42.60
2018-07-02T17:24:18.850Z,41.90
2018-07-02T17:26:48.172Z,41.80
2018-07-02T17:29:17.243Z,41.70
2018-07-02T17:34:14.554Z,41.40
2018-07-02T17:36:43.519Z,41.40
2018-07-02T17:39:11.535Z,41.20
2018-07-02T17:41:39.423Z,40.20
2018-07-02T17:44:07.104Z,40.40
2018-07-02T17:46:35.107Z,40.80
2018-07-02T17:49:03.425Z,40.70
2018-07-02T17:51:31.135Z,39.90
2018-07-02T17:53:58.823Z,39.50
2018-07-02T17:58:55.515Z,39.80
2018-07-02T18:01:23.231Z,39.70
2018-07-02T18:03:50.937Z,39.40
2018-07-02T18:06:18.695Z,38.80
2018-07-02T18:08:46.458Z,38.60
2018-07-02T18:11:14.130Z,38.70
2018-07-02T18:13:41.801Z,38.70
2018-07-02T18:16:09.510Z,38.70
2018-07-02T18:18:37.215Z,38.60
2018-07-02T18:21:07.726Z,38.60
2018-07-02T18:23:35.438Z,38.00
2018-07-02T18:26:03.166Z,37.80
2018-07-02T18:28:31.642Z,37.70
2018-07-02T18:30:59.349Z,37.80
2018-07-02T18:33:27.067Z,37.90
2018-07-02T18:35:54.745Z,37.50
2018-07-02T18:38:22.438Z,37.30
2018-07-02T18:40:50.234Z,36.90
2018-07-02T18:43:18.012Z,36.80
2018-07-02T18:45:47.884Z,37.00
2018-07-02T18:48:15.650Z,36.80
2018-07-02T18:50:43.314Z,36.30
2018-07-02T18:53:10.987Z,35.90
2018-07-02T18:55:38.761Z,35.90
2018-07-02T18:58:06.465Z,35.90
2018-07-02T19:00:34.203Z,35.80
2018-07-02T19:03:01.884Z,35.60
2018-07-02T19:05:29.591Z,35.30
2018-07-02T19:07:57.462Z,35.00
2018-07-02T19:10:25.205Z,34.80
2018-07-02T19:12:53.068Z,34.80
2018-07-02T19:15:20.818Z,34.70
2018-07-02T19:17:48.526Z,34.50
2018-07-02T19:20:16.235Z,34.30
2018-07-02T19:22:44.139Z,33.80
2018-07-02T19:25:11.878Z,33.80
2018-07-02T19:27:39.571Z,33.70
2018-07-02T19:32:47.136Z,33.80
2018-07-02T19:35:14.855Z,33.80
2018-07-02T19:37:42.595Z,33.00
2018-07-02T19:40:10.285Z,32.90
2018-07-02T19:45:06.373Z,32.80
2018-07-02T19:47:35.095Z,32.60
2018-07-02T19:50:03.244Z,32.30
2018-07-02T19:52:31.000Z,32.00
2018-07-02T19:54:58.750Z,31.70
2018-07-02T19:57:26.477Z,31.40
2018-07-02T19:59:54.192Z,31.30
2018-07-02T20:02:22.302Z,31.10
2018-07-02T20:04:50.032Z,30.90
2018-07-02T20:07:17.738Z,30.60
2018-07-02T20:09:45.458Z,30.30
2018-07-02T20:12:13.189Z,30.00
2018-07-02T20:14:40.902Z,29.70
2018-07-02T20:17:08.612Z,29.70
2018-07-02T20:19:36.371Z,29.50
2018-07-02T20:22:04.109Z,29.40
2018-07-02T20:24:31.859Z,29.20
2018-07-02T20:26:59.602Z,29.30
2018-07-02T20:29:27.297Z,29.00
2018-07-02T20:31:54.984Z,28.90
2018-07-02T20:34:22.670Z,28.90
2018-07-02T20:36:50.358Z,28.90
2018-07-02T20:39:18.081Z,28.80
2018-07-02T20:41:45.811Z,28.80
2018-07-02T20:44:13.568Z,28.60
2018-07-02T20:46:41.281Z,28.30
2018-07-02T20:51:36.676Z,28.10
2018-07-02T20:54:04.431Z,28.20
2018-07-02T20:56:32.148Z,28.20
2018-07-02T20:58:59.917Z,28.00
2018-07-02T21:03:56.236Z,27.90
2018-07-02T21:06:23.929Z,27.70
2018-07-02T21:11:19.973Z,27.50
2018-07-02T21:13:47.806Z,27.50
2018-07-02T21:16:15.489Z,27.20
2018-07-02T21:18:43.157Z,27.10
2018-07-02T21:21:18.037Z,27.10
2018-07-02T21:23:45.761Z,27.00
2018-07-02T21:26:13.511Z,26.80
2018-07-02T21:28:41.292Z,26.80
2018-07-02T21:31:08.997Z,26.50
2018-07-02T21:33:36.829Z,26.40
2018-07-02T21:36:04.890Z,26.20
2018-07-02T21:38:32.747Z,25.90
2018-07-02T21:41:00.553Z,26.00
2018-07-02T21:43:28.278Z,25.80
2018-07-02T21:45:55.978Z,25.80
2018-07-02T21:48:23.681Z,25.70
2018-07-02T21:50:51.367Z,25.50
2018-07-02T21:53:19.125Z,25.20
2018-07-02T21:55:46.936Z,25.10
2018-07-02T21:58:14.636Z,25.10
2018-07-02T22:00:43.696Z,25.10
2018-07-02T22:03:11.581Z,25.10
2018-07-02T22:05:39.664Z,24.90
2018-07-02T22:08:07.399Z,24.90
2018-07-02T22:10:35.139Z,24.70
2018-07-02T22:13:03.476Z,24.80
2018-07-02T22:15:31.191Z,24.60
2018-07-02T22:17:58.950Z,24.50
2018-07-02T22:20:26.635Z,24.60
2018-07-02T22:22:54.337Z,24.50
2018-07-02T22:25:22.102Z,24.20
2018-07-02T22:27:49.783Z,24.20
2018-07-02T22:30:17.513Z,24.00
2018-07-02T22:32:45.229Z,22.30
2018-07-02T22:35:13.310Z,23.70
2018-07-02T22:37:41.032Z,23.60
2018-07-02T22:40:08.789Z,23.80
2018-07-02T22:42:36.501Z,23.60
2018-07-02T22:45:04.716Z,23.50
2018-07-02T22:47:32.470Z,23.50
2018-07-02T22:50:00.227Z,23.30
2018-07-02T22:52:27.983Z,23.20
2018-07-02T22:54:55.651Z,23.00
2018-07-02T22:57:23.401Z,23.00
2018-07-02T22:59:51.097Z,22.90
2018-07-02T23:02:18.891Z,22.80
2018-07-02T23:04:46.621Z,22.70
2018-07-02T23:07:14.340Z,22.80
2018-07-02T23:09:42.037Z,22.80
2018-07-02T23:12:09.765Z,22.80
2018-07-02T23:14:37.439Z,22.80
2018-07-02T23:17:05.163Z,22.80
2018-07-02T23:19:33.012Z,22.70
2018-07-02T23:22:00.719Z,22.70
2018-07-02T23:24:28.433Z,22.60
2018-07-02T23:26:56.107Z,22.50
2018-07-02T23:29:23.787Z,22.60
2018-07-02T23:31:51.481Z,22.70
2018-07-02T23:34:19.187Z,22.80
2018-07-02T23:39:14.929Z,22.70
2018-07-02T23:41:43.314Z,22.70
2018-07-02T23:44:11.030Z,22.70
2018-07-02T23:46:38.745Z,22.60
2018-07-02T23:49:06.769Z,22.70
2018-07-02T23:51:34.452Z,23.00
2018-07-02T23:56:29.891Z,22.70
2018-07-02T23:58:57.601Z,22.30
